Time;durP1;ratioP1;P1;durP2;ratioP2;P2;SDS_P1;SDS_P2;PMS_P1;PMS_P2;Temp;Humidity;BMP_temperature;BMP_pressure;BME280_temperature;BME280_humidity;BME280_pressure;Samples;Min_cycle;Max_cycle;Signal;HPM_P1;HPM_P2
2023/05/18 00:00:59;;;;;;;12.02;5.13;;;9.60;99.90;;;8.88;100.00;102260.41;4121731;28;20031;-73
2023/05/18 00:03:00;;;;;;;9.75;4.97;;;9.60;99.90;;;8.92;100.00;102263.69;4120436;28;20027;-73
2023/05/18 00:05:03;;;;;;;11.38;5.20;;;9.50;99.90;;;8.86;100.00;102251.81;4121525;28;20026;-73
2023/05/18 00:07:05;;;;;;;11.32;4.95;;;9.50;99.90;;;8.87;100.00;102262.19;4136767;28;20046;-73
2023/05/18 00:09:06;;;;;;;11.75;4.88;;;9.50;99.90;;;8.89;100.00;102256.84;4136631;28;20406;-73
2023/05/18 00:11:07;;;;;;;9.82;5.85;;;9.50;99.90;;;8.87;100.00;102261.34;4120069;28;20039;-73
2023/05/18 00:13:08;;;;;;;12.60;5.07;;;9.50;99.90;;;8.85;100.00;102261.47;4121423;28;20105;-73
2023/05/18 00:15:09;;;;;;;10.45;5.47;;;9.50;99.90;;;8.84;100.00;102251.88;4121000;28;20114;-73
2023/05/18 00:17:10;;;;;;;9.60;5.03;;;9.50;99.90;;;8.82;100.00;102247.69;4121615;28;20019;-73
2023/05/18 00:19:15;;;;;;;10.73;5.90;;;9.40;99.90;;;8.81;100.00;102252.09;4136266;28;20034;-73
2023/05/18 00:21:16;;;;;;;10.65;5.18;;;9.40;99.90;;;8.77;100.00;102248.03;4121353;28;20027;-73
2023/05/18 00:23:17;;;;;;;11.65;6.40;;;9.40;99.90;;;8.80;100.00;102253.06;4121499;28;20027;-73
2023/05/18 00:25:18;;;;;;;9.07;5.63;;;9.40;99.90;;;8.75;100.00;102252.53;4121157;28;20398;-73
2023/05/18 00:27:19;;;;;;;12.55;5.65;;;9.40;99.90;;;8.75;100.00;102249.91;4120227;28;20029;-73
2023/05/18 00:29:20;;;;;;;11.82;5.63;;;9.40;99.90;;;8.77;100.00;102255.06;4136166;28;20023;-73
2023/05/18 00:31:21;;;;;;;9.32;5.32;;;9.40;99.90;;;8.73;100.00;102254.44;4121347;28;20039;-73
2023/05/18 00:33:22;;;;;;;7.85;5.13;;;9.40;99.90;;;8.69;100.00;102252.97;4121516;28;20027;-73
2023/05/18 00:35:23;;;;;;;9.52;4.85;;;9.30;99.90;;;8.67;100.00;102254.88;4136128;28;20058;-73
2023/05/18 00:37:24;;;;;;;11.00;6.32;;;9.30;99.90;;;8.65;100.00;102258.56;4121068;28;20045;-73
2023/05/18 00:39:25;;;;;;;12.48;5.97;;;9.30;99.90;;;8.58;100.00;102250.25;4120829;28;20046;-73
2023/05/18 00:41:27;;;;;;;9.60;5.55;;;9.20;99.90;;;8.56;100.00;102252.16;4135893;28;20027;-73
2023/05/18 00:43:28;;;;;;;10.18;5.78;;;9.20;99.90;;;8.56;100.00;102252.16;4135658;28;20033;-73
2023/05/18 00:45:29;;;;;;;12.10;6.32;;;9.20;99.90;;;8.57;100.00;102259.06;4120843;28;20035;-73
2023/05/18 00:47:30;;;;;;;12.60;6.43;;;9.20;99.90;;;8.57;100.00;102253.00;4121097;28;20042;-73
2023/05/18 00:49:31;;;;;;;16.27;6.57;;;9.10;99.90;;;8.54;100.00;102254.03;4121040;28;20070;-73
2023/05/18 00:51:33;;;;;;;12.45;5.55;;;9.20;99.90;;;8.55;100.00;102247.84;4135790;28;20038;-73
2023/05/18 00:53:35;;;;;;;14.50;5.78;;;9.10;99.90;;;8.52;100.00;102245.41;4135712;28;20026;-73
2023/05/18 00:55:36;;;;;;;11.55;6.30;;;9.10;99.90;;;8.53;100.00;102247.09;4135713;28;20030;-73
2023/05/18 00:57:40;;;;;;;10.60;5.82;;;9.10;99.90;;;8.51;100.00;102242.91;4119624;28;20082;-73
2023/05/18 00:59:42;;;;;;;11.32;5.47;;;9.10;99.90;;;8.54;100.00;102240.88;4135527;28;20069;-73
2023/05/18 01:01:43;;;;;;;9.73;5.93;;;9.10;99.90;;;8.54;100.00;102238.25;4135595;28;20042;-73
2023/05/18 01:03:44;;;;;;;11.93;5.72;;;9.10;99.90;;;8.54;100.00;102237.44;4119692;28;20027;-73
2023/05/18 01:05:48;;;;;;;12.27;5.88;;;9.20;99.90;;;8.51;100.00;102227.94;4135405;28;20505;-73
2023/05/18 01:07:49;;;;;;;11.93;5.80;;;9.20;99.90;;;8.48;100.00;102228.19;4119650;28;20050;-73
2023/05/18 01:09:51;;;;;;;14.55;5.60;;;9.10;99.90;;;8.50;100.00;102226.28;4120315;28;20521;-73
2023/05/18 01:12:17;;;;;;;11.85;6.03;;;9.20;99.90;;;8.55;100.00;102245.19;4135329;28;20034;-73
2023/05/18 01:14:37;;;;;;;9.25;6.47;;;9.10;99.90;;;8.53;100.00;102238.38;4134302;28;20539;-73
2023/05/18 01:17:22;;;;;;;13.65;5.38;;;9.10;99.90;;;8.52;100.00;102245.41;4135320;28;20034;-73
2023/05/18 01:19:57;;;;;;;15.73;6.37;;;9.10;99.90;;;8.52;100.00;102245.41;4118750;28;20057;-73
2023/05/18 01:22:22;;;;;;;12.70;5.80;;;9.10;99.90;;;8.45;100.00;102233.66;4119294;28;20282;-73
2023/05/18 01:24:41;;;;;;;9.25;5.55;;;9.10;99.90;;;8.51;100.00;102248.97;4119318;28;20023;-73
2023/05/18 01:26:45;;;;;;;13.10;5.75;;;9.10;99.90;;;8.42;100.00;102233.88;4117831;28;20030;-73
2023/05/18 01:28:47;;;;;;;8.95;5.18;;;9.10;99.90;;;8.44;100.00;102239.84;4103416;28;20027;-73
2023/05/18 01:30:49;;;;;;;9.57;5.80;;;9.10;99.90;;;8.43;100.00;102238.16;4119112;28;20570;-73
2023/05/18 01:32:50;;;;;;;15.48;5.82;;;9.10;99.90;;;8.48;100.00;102237.84;4135549;28;20069;-73
2023/05/18 01:34:51;;;;;;;11.98;5.32;;;9.10;99.90;;;8.49;100.00;102244.78;4120574;28;20027;-73
2023/05/18 01:36:52;;;;;;;13.00;5.90;;;9.10;99.90;;;8.49;100.00;102240.38;4120344;28;20031;-73
2023/05/18 01:38:56;;;;;;;12.48;5.57;;;9.10;99.90;;;8.46;100.00;102245.84;4135160;28;20162;-73
2023/05/18 01:41:23;;;;;;;12.18;5.20;;;9.10;99.90;;;8.45;100.00;102230.19;4134904;28;20022;-73
2023/05/18 01:43:45;;;;;;;11.48;6.20;;;9.10;99.90;;;8.45;100.00;102238.91;4135017;28;20410;-73
2023/05/18 01:45:51;;;;;;;14.02;6.30;;;9.10;99.90;;;8.48;100.00;102238.69;4134570;28;20113;-73
2023/05/18 01:47:58;;;;;;;11.23;5.68;;;9.10;99.90;;;8.50;100.00;102235.94;4118866;28;20038;-73
2023/05/18 01:50:12;;;;;;;10.18;5.20;;;9.10;99.90;;;8.52;100.00;102234.03;4135001;28;20498;-73
2023/05/18 01:52:20;;;;;;;12.48;5.28;;;9.10;99.90;;;8.54;100.00;102237.44;4134538;28;20034;-73
2023/05/18 01:54:23;;;;;;;10.20;5.63;;;9.10;99.90;;;8.54;100.00;102237.44;4134980;28;20088;-73
2023/05/18 01:56:25;;;;;;;10.05;5.38;;;9.20;99.90;;;8.54;100.00;102230.34;4134695;28;20057;-73
2023/05/18 01:58:27;;;;;;;9.70;5.53;;;9.20;99.90;;;8.52;100.00;102224.38;4118872;28;20038;-73
2023/05/18 02:00:28;;;;;;;8.35;5.32;;;9.20;99.90;;;8.55;100.00;102228.56;4134874;28;20049;-73
2023/05/18 02:02:30;;;;;;;11.40;6.60;;;9.20;99.90;;;8.51;100.00;102227.13;4135052;28;20025;-73
2023/05/18 02:04:30;;;;;;;9.98;5.43;;;9.20;99.90;;;8.54;100.00;102229.53;4119999;28;20027;-73
2023/05/18 02:06:32;;;;;;;11.93;5.55;;;9.10;99.90;;;8.50;100.00;102220.16;4119741;28;20057;-73
2023/05/18 02:08:33;;;;;;;8.80;5.45;;;9.10;99.90;;;8.49;100.00;102229.00;4132642;28;20031;-73
2023/05/18 02:10:34;;;;;;;13.13;5.72;;;9.10;99.90;;;8.47;100.00;102223.00;4134409;28;20433;-73
2023/05/18 02:12:35;;;;;;;9.68;5.68;;;9.10;99.90;;;8.49;100.00;102224.59;4118942;28;20034;-73
2023/05/18 02:14:36;;;;;;;8.15;4.97;;;9.10;99.90;;;8.46;100.00;102227.44;4120046;28;20391;-73
2023/05/18 02:16:37;;;;;;;11.55;5.80;;;9.10;99.90;;;8.45;100.00;102233.66;4134795;28;20069;-73
2023/05/18 02:18:38;;;;;;;8.27;5.35;;;9.10;99.90;;;8.43;100.00;102235.53;4134944;28;20031;-73
2023/05/18 02:20:39;;;;;;;8.40;4.82;;;9.00;99.90;;;8.38;100.00;102223.66;4119834;28;20033;-73
2023/05/18 02:22:40;;;;;;;7.75;4.82;;;9.00;99.90;;;8.39;100.00;102233.22;4135064;28;20019;-73
2023/05/18 02:24:41;;;;;;;11.68;5.70;;;9.00;99.90;;;8.35;100.00;102229.97;4119958;28;20031;-73
2023/05/18 02:26:42;;;;;;;12.13;5.68;;;9.00;99.90;;;8.36;100.00;102231.66;4134289;28;20550;-73
2023/05/18 02:28:42;;;;;;;12.68;4.88;;;9.00;99.90;;;8.35;100.00;102227.34;4112268;28;20437;-73
2023/05/18 02:30:43;;;;;;;9.05;5.07;;;8.90;99.90;;;8.31;100.00;102225.84;4119794;28;20026;-73
2023/05/18 02:32:47;;;;;;;9.32;5.10;;;8.90;99.90;;;8.30;100.00;102224.19;4118693;28;20042;-73
2023/05/18 02:34:52;;;;;;;9.77;5.03;;;8.90;99.90;;;8.34;100.00;102233.53;4118743;28;20023;-73
2023/05/18 02:36:56;;;;;;;9.48;5.07;;;8.90;99.90;;;8.32;100.00;102233.66;4118374;28;20065;-73
2023/05/18 02:38:57;;;;;;;7.43;4.72;;;8.90;99.90;;;8.27;100.00;102232.25;4121973;28;20027;-73
2023/05/18 02:40:58;;;;;;;9.85;5.35;;;8.90;99.90;;;8.23;100.00;102229.00;4137869;28;20042;-73
2023/05/18 02:42:59;;;;;;;9.63;5.15;;;8.90;99.90;;;8.23;100.00;102231.63;4121750;28;20565;-73
2023/05/18 02:45:01;;;;;;;9.30;5.28;;;8.90;99.90;;;8.24;100.00;102240.34;4121626;28;20047;-73
2023/05/18 02:47:01;;;;;;;14.82;5.93;;;8.90;99.90;;;8.25;100.00;102242.00;4137719;28;20105;-73
2023/05/18 02:49:02;;;;;;;13.55;5.45;;;8.80;99.90;;;8.22;100.00;102237.81;4122954;28;20042;-73
2023/05/18 02:51:03;;;;;;;10.32;5.25;;;8.90;99.90;;;8.27;100.00;102240.13;4137659;28;20526;-73
2023/05/18 02:53:04;;;;;;;8.45;4.60;;;8.90;99.90;;;8.23;100.00;102233.41;4122888;28;20501;-73
2023/05/18 02:55:06;;;;;;;14.10;5.57;;;8.90;99.90;;;8.25;100.00;102244.63;4137468;28;20018;-73
2023/05/18 02:57:06;;;;;;;7.70;4.57;;;8.90;99.90;;;8.24;100.00;102240.34;4137334;28;20045;-73
2023/05/18 02:59:07;;;;;;;9.50;4.88;;;8.90;99.90;;;8.27;100.00;102245.41;4137681;28;20442;-73
2023/05/18 03:01:11;;;;;;;13.07;6.05;;;8.90;99.90;;;8.23;100.00;102241.28;4121581;28;20022;-73
2023/05/18 03:03:14;;;;;;;11.07;5.30;;;8.80;99.90;;;8.24;100.00;102245.59;4122523;28;20023;-73
2023/05/18 03:05:17;;;;;;;11.80;6.10;;;8.80;99.90;;;8.22;100.00;102236.97;4137345;28;20019;-73
2023/05/18 03:07:18;;;;;;;12.68;5.03;;;8.80;99.90;;;8.22;100.00;102242.22;4121367;28;20039;-73
2023/05/18 03:09:18;;;;;;;9.60;5.30;;;8.80;99.90;;;8.23;100.00;102241.28;4137725;28;20030;-73
2023/05/18 03:11:23;;;;;;;11.00;5.50;;;8.80;99.90;;;8.25;100.00;102239.38;4122245;28;20026;-73
2023/05/18 03:13:25;;;;;;;13.80;5.65;;;8.90;99.90;;;8.30;100.00;102245.22;4137151;28;20109;-73
2023/05/18 03:15:25;;;;;;;8.52;5.40;;;8.80;99.90;;;8.31;100.00;102249.50;4137731;28;20390;-73
2023/05/18 03:17:26;;;;;;;13.15;5.18;;;8.90;99.90;;;8.28;100.00;102233.94;4122552;28;20027;-73
2023/05/18 03:19:27;;;;;;;10.57;5.43;;;8.90;99.90;;;8.31;100.00;102241.63;4122249;28;20035;-73
2023/05/18 03:21:32;;;;;;;9.13;4.82;;;8.90;99.90;;;8.31;100.00;102242.47;4122431;28;20439;-73
2023/05/18 03:23:34;;;;;;;7.75;5.00;;;8.90;99.90;;;8.31;100.00;102233.75;4137148;28;20035;-73
2023/05/18 03:25:36;;;;;;;11.18;4.90;;;8.90;99.90;;;8.33;100.00;102240.56;4120895;28;20033;-73
2023/05/18 03:27:37;;;;;;;6.88;4.90;;;8.90;99.90;;;8.34;100.00;102239.63;4122175;28;20031;-73
2023/05/18 03:29:38;;;;;;;8.88;5.47;;;9.00;99.90;;;8.31;100.00;102239.00;4137342;28;20026;-73
2023/05/18 03:31:39;;;;;;;11.65;5.43;;;9.00;99.90;;;8.35;100.00;102243.13;4136991;28;20042;-73
2023/05/18 03:33:40;;;;;;;10.07;5.10;;;9.00;99.90;;;8.33;100.00;102240.56;4122307;28;20027;-73
2023/05/18 03:35:40;;;;;;;10.18;5.40;;;9.00;99.90;;;8.33;100.00;102239.75;4137108;28;20081;-73
2023/05/18 03:37:41;;;;;;;8.30;5.20;;;9.00;99.90;;;8.32;100.00;102238.91;4120912;28;20402;-73
2023/05/18 03:39:43;;;;;;;7.63;4.60;;;9.00;99.90;;;8.31;100.00;102236.38;4122102;28;20066;-73
2023/05/18 03:41:44;;;;;;;9.77;5.20;;;9.00;99.90;;;8.30;100.00;102245.22;4136684;28;20029;-73
2023/05/18 03:43:45;;;;;;;12.77;5.72;;;9.00;99.90;;;8.29;100.00;102238.28;4120824;28;20031;-73
2023/05/18 03:45:46;;;;;;;13.27;5.53;;;8.90;99.90;;;8.26;100.00;102227.94;4136658;28;20502;-73
2023/05/18 03:47:48;;;;;;;10.85;5.32;;;8.90;99.90;;;8.26;100.00;102227.94;4121001;28;20123;-73
2023/05/18 03:49:49;;;;;;;12.52;5.43;;;8.90;99.90;;;8.29;100.00;102239.13;4136072;28;20056;-73
2023/05/18 03:51:53;;;;;;;12.23;5.82;;;8.90;99.90;;;8.24;100.00;102232.47;4121942;28;20490;-73
2023/05/18 03:53:53;;;;;;;9.20;4.95;;;8.90;99.90;;;8.29;100.00;102239.13;4136657;28;20026;-73
2023/05/18 03:55:55;;;;;;;9.27;5.57;;;8.90;99.90;;;8.25;100.00;102226.25;4121689;28;20034;-73
2023/05/18 03:57:57;;;;;;;10.10;5.47;;;8.90;99.90;;;8.28;100.00;102240.06;4121922;28;20023;-73
2023/05/18 03:59:58;;;;;;;9.30;4.80;;;8.90;99.90;;;8.28;100.00;102241.84;4136483;28;20054;-73
2023/05/18 04:02:00;;;;;;;11.93;5.55;;;8.90;99.90;;;8.30;100.00;102245.22;4120334;28;20050;-73
2023/05/18 04:04:00;;;;;;;13.63;5.50;;;8.90;99.90;;;8.28;100.00;102241.84;4136628;28;20027;-73
2023/05/18 04:06:01;;;;;;;12.07;4.95;;;8.90;99.90;;;8.30;100.00;102246.03;4120452;28;20051;-73
2023/05/18 04:08:02;;;;;;;13.95;6.35;;;8.90;99.90;;;8.32;100.00;102238.06;4120428;28;20057;-73
2023/05/18 04:10:04;;;;;;;9.25;4.70;;;9.00;99.90;;;8.34;100.00;102241.41;4120134;28;20027;-73
2023/05/18 04:12:05;;;;;;;12.55;5.55;;;9.00;99.90;;;8.32;100.00;102240.69;4121628;28;20034;-73
2023/05/18 04:14:11;;;;;;;9.85;5.20;;;8.90;99.90;;;8.31;100.00;102226.69;4121651;28;20110;-73
2023/05/18 04:16:12;;;;;;;10.50;5.63;;;9.00;99.90;;;8.33;100.00;102240.56;4136450;28;20101;-73
2023/05/18 04:18:13;;;;;;;12.57;5.88;;;9.00;99.90;;;8.34;100.00;102230.91;4121256;28;20650;-73
2023/05/18 04:20:14;;;;;;;12.85;5.80;;;9.00;99.90;;;8.36;100.00;102229.03;4136469;28;20034;-73
2023/05/18 04:22:15;;;;;;;9.18;5.40;;;9.00;99.90;;;8.37;100.00;102228.06;4120117;28;20025;-73
2023/05/18 04:24:18;;;;;;;10.30;5.70;;;9.00;99.90;;;8.37;100.00;102225.44;4120181;28;20027;-73
2023/05/18 04:26:19;;;;;;;11.93;5.90;;;9.10;99.90;;;8.37;100.00;102230.69;4120086;28;20026;-73
2023/05/18 04:28:19;;;;;;;10.88;4.90;;;9.00;99.90;;;8.39;100.00;102238.50;4121452;28;20475;-73
2023/05/18 04:30:23;;;;;;;11.25;5.03;;;9.00;99.90;;;8.35;100.00;102237.84;4136348;28;20038;-73
2023/05/18 04:32:27;;;;;;;10.52;5.57;;;9.00;99.90;;;8.38;100.00;102235.00;4120235;28;20041;-73
2023/05/18 04:34:30;;;;;;;11.60;5.25;;;9.00;99.90;;;8.42;100.00;102239.13;4120088;28;20035;-73
2023/05/18 04:36:30;;;;;;;14.45;5.75;;;9.00;99.90;;;8.39;100.00;102231.44;4120220;28;20052;-73
2023/05/18 04:38:35;;;;;;;10.73;5.40;;;9.10;99.90;;;8.46;100.00;102240.56;4135919;28;20053;-73
2023/05/18 04:40:36;;;;;;;8.65;5.40;;;9.10;99.90;;;8.45;100.00;102244.19;4120697;28;20031;-73
2023/05/18 04:42:44;;;;;;;12.85;5.63;;;9.10;99.90;;;8.43;100.00;102248.69;4121111;28;20038;-73
2023/05/18 04:44:45;;;;;;;14.25;5.85;;;9.10;99.90;;;8.46;100.00;102243.19;4135542;28;21182;-73
2023/05/18 04:46:46;;;;;;;9.90;4.85;;;9.10;99.90;;;8.49;100.00;102244.78;4136087;28;20589;-73
2023/05/18 04:48:51;;;;;;;10.93;5.05;;;9.10;99.90;;;8.51;100.00;102235.00;4120931;28;20036;-73
2023/05/18 04:50:55;;;;;;;11.45;5.88;;;9.10;99.90;;;8.52;100.00;102234.91;4120924;28;20035;-73
2023/05/18 04:52:57;;;;;;;8.65;5.55;;;9.20;99.90;;;8.55;100.00;102239.94;4135682;28;20065;-73
2023/05/18 04:54:57;;;;;;;10.52;4.57;;;9.20;99.90;;;8.56;100.00;102246.91;4120941;28;20402;-73
2023/05/18 04:56:58;;;;;;;8.75;4.85;;;9.20;99.90;;;8.61;100.00;102252.66;4120548;28;20034;-73
2023/05/18 04:58:59;;;;;;;13.65;5.03;;;9.20;99.90;;;8.61;100.00;102249.19;4119502;28;20038;-73
2023/05/18 05:01:00;;;;;;;7.90;4.50;;;9.20;99.90;;;8.61;100.00;102246.56;4119391;28;20483;-73
2023/05/18 05:03:01;;;;;;;12.23;5.30;;;9.20;99.90;;;8.65;100.00;102251.50;4119603;28;20534;-73
2023/05/18 05:05:02;;;;;;;9.98;5.57;;;9.30;99.90;;;8.71;100.00;102258.97;4135626;28;20105;-73
2023/05/18 05:07:03;;;;;;;12.68;6.45;;;9.30;99.90;;;8.73;100.00;102259.72;4120877;28;20034;-73
2023/05/18 05:09:04;;;;;;;11.15;6.15;;;9.30;99.90;;;8.79;100.00;102261.91;4120978;28;20035;-73
2023/05/18 05:11:05;;;;;;;9.38;5.25;;;9.40;99.90;;;8.84;100.00;102265.06;4120377;28;20371;-73
2023/05/18 05:13:06;;;;;;;13.43;5.45;;;9.50;99.90;;;8.87;100.00;102256.94;4119289;28;20050;-73
2023/05/18 05:15:08;;;;;;;9.25;5.47;;;9.50;99.90;;;8.92;100.00;102267.16;4135591;28;20033;-73
2023/05/18 05:17:11;;;;;;;13.88;5.18;;;9.60;99.90;;;8.99;100.00;102262.31;4135450;28;20052;-73
2023/05/18 05:19:12;;;;;;;12.60;5.05;;;9.60;99.90;;;9.06;100.00;102261.75;4135222;28;20022;-73
2023/05/18 05:21:13;;;;;;;8.57;4.93;;;9.70;99.90;;;9.10;100.00;102265.84;4120435;28;20030;-73
2023/05/18 05:23:13;;;;;;;7.43;4.70;;;9.70;99.90;;;9.21;100.00;102267.72;4120608;28;20027;-73
2023/05/18 05:25:14;;;;;;;9.60;5.35;;;9.80;99.90;;;9.26;100.00;102268.22;4134990;28;20028;-73
2023/05/18 05:27:15;;;;;;;11.88;5.18;;;9.90;99.90;;;9.31;100.00;102263.47;4120453;28;20054;-73
2023/05/18 05:29:16;;;;;;;10.10;4.75;;;10.00;99.90;;;9.41;100.00;102272.38;4120418;28;20026;-73
2023/05/18 05:31:17;;;;;;;8.77;5.05;;;10.00;99.90;;;9.46;100.00;102280.81;4135143;28;20030;-73
2023/05/18 05:33:18;;;;;;;11.77;4.63;;;10.10;99.90;;;9.50;100.00;102276.97;4120417;28;20058;-73
2023/05/18 05:35:19;;;;;;;8.80;5.00;;;10.20;99.90;;;9.58;100.00;102282.53;4135451;28;20034;-73
2023/05/18 05:37:20;;;;;;;9.60;4.50;;;10.20;99.90;;;9.62;100.00;102276.09;4118918;28;20031;-73
2023/05/18 05:39:21;;;;;;;8.32;4.97;;;10.30;99.90;;;9.71;100.00;102278.03;4120398;28;20023;-73
2023/05/18 05:41:22;;;;;;;10.57;5.93;;;10.30;99.90;;;9.80;100.00;102273.88;4135016;28;20074;-73
2023/05/18 05:43:23;;;;;;;9.70;4.90;;;10.40;99.90;;;9.84;100.00;102281.47;4120224;28;20031;-73
2023/05/18 05:45:24;;;;;;;8.98;4.65;;;10.50;99.90;;;9.85;100.00;102271.75;4134936;28;20042;-73
2023/05/18 05:47:24;;;;;;;11.10;5.57;;;10.50;99.90;;;9.90;100.00;102274.88;4118901;28;20027;-73
2023/05/18 05:49:25;;;;;;;10.63;4.97;;;10.60;99.90;;;9.92;100.00;102268.53;4135120;28;20030;-73
2023/05/18 05:51:26;;;;;;;10.85;5.65;;;10.60;99.90;;;10.01;100.00;102282.81;4120253;28;20035;-73
2023/05/18 05:53:28;;;;;;;8.23;5.18;;;10.70;99.90;;;10.11;100.00;102286.47;4135046;28;20026;-73
2023/05/18 05:55:29;;;;;;;11.50;5.22;;;10.70;99.90;;;10.15;100.00;102284.47;4119768;28;20110;-73
2023/05/18 05:57:30;;;;;;;11.43;5.00;;;10.80;99.90;;;10.27;100.00;102289.69;4135060;28;20510;-73
2023/05/18 05:59:31;;;;;;;11.15;5.35;;;10.90;99.90;;;10.37;100.00;102289.78;4120048;28;20027;-73
2023/05/18 06:01:33;;;;;;;14.05;5.68;;;10.90;99.90;;;10.33;100.00;102283.94;4120090;28;20034;-73
2023/05/18 06:03:35;;;;;;;10.55;4.70;;;11.00;99.90;;;10.42;100.00;102287.66;4134699;28;20036;-73
2023/05/18 06:05:36;;;;;;;10.20;5.28;;;11.00;99.90;;;10.47;100.00;102285.50;4134782;28;20050;-73
2023/05/18 06:07:37;;;;;;;12.88;6.00;;;11.10;99.90;;;10.53;100.00;102282.41;4119772;28;20030;-73
2023/05/18 06:09:38;;;;;;;9.93;4.80;;;11.20;99.90;;;10.58;100.00;102282.88;4118738;28;20023;-73
2023/05/18 06:11:39;;;;;;;7.53;4.38;;;11.20;99.90;;;10.67;100.00;102283.97;4119621;28;20038;-73
2023/05/18 06:13:40;;;;;;;9.18;4.18;;;11.30;99.90;;;10.74;100.00;102293.94;4134592;28;20026;-73
2023/05/18 06:15:41;;;;;;;8.20;4.60;;;11.40;99.90;;;10.78;100.00;102284.78;4120242;28;20027;-73
2023/05/18 06:17:42;;;;;;;7.70;4.60;;;11.40;99.90;;;10.94;100.00;102290.56;4134910;28;20061;-73
2023/05/18 06:19:43;;;;;;;12.07;5.00;;;11.50;99.90;;;10.97;100.00;102287.69;4134527;28;20451;-73
2023/05/18 06:21:44;;;;;;;8.38;5.32;;;11.60;99.90;;;11.02;100.00;102287.34;4134801;28;20030;-73
2023/05/18 06:23:45;;;;;;;8.57;4.15;;;11.60;99.90;;;11.13;100.00;102284.69;4134817;28;20493;-73
2023/05/18 06:25:46;;;;;;;15.60;4.80;;;11.70;99.90;;;11.06;100.00;102278.19;4118392;28;20034;-73
2023/05/18 06:27:47;;;;;;;12.27;4.72;;;11.80;99.90;;;11.22;100.00;102289.22;4119771;28;20031;-73
2023/05/18 06:29:48;;;;;;;8.77;4.43;;;11.80;99.90;;;11.28;100.00;102293.19;4134597;28;20022;-73
2023/05/18 06:31:49;;;;;;;11.90;4.70;;;11.90;99.90;;;11.36;100.00;102286.31;4111819;28;20035;-73
2023/05/18 06:33:49;;;;;;;11.43;4.80;;;11.90;99.90;;;11.47;100.00;102290.72;4118714;28;20033;-73
2023/05/18 06:35:50;;;;;;;8.43;4.22;;;12.00;99.90;;;11.53;100.00;102284.94;4119713;28;20030;-73
2023/05/18 06:37:51;;;;;;;7.05;4.13;;;12.00;99.90;;;11.67;100.00;102289.97;4118169;28;20027;-73
2023/05/18 06:39:52;;;;;;;9.93;5.28;;;12.20;99.90;;;11.77;100.00;102288.25;4119336;28;20039;-72
2023/05/18 06:41:53;;;;;;;8.60;4.88;;;12.30;99.90;;;11.87;100.00;102286.53;4119441;28;20034;-72
2023/05/18 06:43:54;;;;;;;9.90;4.47;;;12.40;99.90;;;11.89;100.00;102292.53;4119579;28;20475;-72
2023/05/18 06:45:55;;;;;;;9.40;4.75;;;12.50;99.90;;;12.07;100.00;102298.09;4134462;28;20054;-73
2023/05/18 06:47:56;;;;;;;11.40;4.88;;;12.60;99.90;;;12.23;100.00;102289.72;4119812;28;20041;-73
2023/05/18 06:49:57;;;;;;;11.30;4.60;;;12.70;99.90;;;12.26;100.00;102289.47;4119694;28;20026;-73
2023/05/18 06:51:58;;;;;;;7.70;3.67;;;12.80;99.90;;;12.37;100.00;102289.41;4134320;28;20043;-73
2023/05/18 06:53:58;;;;;;;9.35;5.13;;;12.90;99.90;;;12.54;100.00;102294.13;4119774;28;20063;-73
2023/05/18 06:56:00;;;;;;;8.10;4.53;;;13.00;99.90;;;12.71;100.00;102291.69;4119361;28;20553;-73
2023/05/18 06:58:01;;;;;;;5.95;4.28;;;13.20;99.90;;;12.64;100.00;102295.00;4134453;28;20022;-73
2023/05/18 07:00:05;;;;;;;8.55;4.18;;;13.20;99.90;;;12.73;100.00;102295.06;4119509;28;20044;-72
2023/05/18 07:02:07;;;;;;;9.30;5.10;;;13.30;99.90;;;12.82;100.00;102290.75;4119679;28;20023;-73
2023/05/18 07:04:07;;;;;;;12.77;5.10;;;13.30;99.90;;;12.88;100.00;102297.34;4119716;28;20393;-73
2023/05/18 07:06:08;;;;;;;8.70;5.05;;;13.40;99.90;;;12.85;100.00;102298.44;4119375;28;20031;-73
2023/05/18 07:08:09;;;;;;;6.40;3.80;;;13.40;99.90;;;12.99;100.00;102292.78;4119510;28;20055;-73
2023/05/18 07:10:10;;;;;;;9.48;4.32;;;13.50;99.90;;;13.05;100.00;102294.06;4134223;28;20030;-73
2023/05/18 07:12:11;;;;;;;9.25;4.22;;;13.60;99.90;;;13.17;100.00;102296.50;4118421;28;20483;-73
2023/05/18 07:14:12;;;;;;;7.50;4.38;;;13.70;99.90;;;13.24;100.00;102302.94;4119538;28;20030;-73
2023/05/18 07:16:13;;;;;;;10.75;4.53;;;13.70;99.90;;;13.24;100.00;102297.66;4119354;28;20034;-72
2023/05/18 07:18:14;;;;;;;7.93;4.00;;;13.80;99.90;;;13.41;100.00;102301.44;4134437;28;20030;-72
2023/05/18 07:20:15;;;;;;;8.18;4.35;;;13.90;99.90;;;13.54;100.00;102306.50;4119470;28;20054;-72
2023/05/18 07:22:16;;;;;;;8.35;4.43;;;14.00;99.90;;;13.67;100.00;102309.72;4119442;28;20034;-72
2023/05/18 07:24:17;;;;;;;7.78;3.95;;;14.20;99.90;;;13.80;100.00;102303.16;4134376;28;20593;-72
2023/05/18 07:26:18;;;;;;;10.63;4.10;;;14.20;99.90;;;13.97;100.00;102308.78;4120608;28;20046;-72
2023/05/18 07:28:19;;;;;;;7.50;3.70;;;14.40;99.90;;;14.04;100.00;102286.84;4122612;28;20043;-72
2023/05/18 07:30:21;;;;;;;5.68;3.63;;;14.50;99.90;;;14.14;100.00;102300.94;4122442;28;20147;-73
2023/05/18 07:32:22;;;;;;;9.93;4.90;;;14.60;99.90;;;14.20;97.38;102303.03;4137114;28;20030;-73
2023/05/18 07:34:25;;;;;;;9.43;3.88;;;14.70;99.90;;;14.20;95.34;102308.34;4122027;28;20042;-72
2023/05/18 07:36:27;;;;;;;10.93;4.68;;;14.70;99.90;;;14.25;93.86;102300.78;4136983;28;20108;-72
2023/05/18 07:38:28;;;;;;;6.50;3.47;;;14.80;99.90;;;14.29;93.42;102310.16;4122147;28;20031;-72
2023/05/18 07:40:29;;;;;;;8.60;4.35;;;14.90;99.90;;;14.44;92.78;102299.09;4136597;28;20031;-72
2023/05/18 07:42:32;;;;;;;6.85;4.00;;;14.90;99.90;;;14.64;91.64;102296.25;4121946;28;20026;-72
2023/05/18 07:44:33;;;;;;;12.07;4.18;;;15.10;99.90;;;14.67;90.83;102295.97;4136637;28;20092;-72
2023/05/18 07:46:34;;;;;;;8.07;3.90;;;15.30;99.90;;;14.80;90.92;102293.84;4120733;28;20019;-72
2023/05/18 07:48:35;;;;;;;7.80;3.92;;;15.40;99.90;;;14.93;90.92;102302.28;4122021;28;20452;-71
2023/05/18 07:50:35;;;;;;;6.40;3.45;;;15.50;99.90;;;14.94;89.57;102292.50;4121803;28;20019;-72
2023/05/18 07:52:36;;;;;;;8.18;4.22;;;15.50;99.90;;;15.06;89.03;102283.34;4136571;28;20023;-72
2023/05/18 07:54:37;;;;;;;7.18;3.72;;;15.60;99.90;;;15.21;87.38;102289.84;4120715;28;20027;-72
2023/05/18 07:56:39;;;;;;;6.18;3.65;;;15.70;99.90;;;15.31;85.77;102288.00;4121673;28;20496;-72
2023/05/18 07:58:40;;;;;;;7.78;3.38;;;15.80;99.90;;;15.44;85.52;102291.09;4121704;28;20027;-73
2023/05/18 08:00:41;;;;;;;8.52;4.30;;;15.90;99.90;;;15.64;85.61;102281.22;4121833;28;20479;-73
2023/05/18 08:02:43;;;;;;;8.32;4.00;;;16.10;99.90;;;15.63;83.78;102278.69;4136698;28;20023;-73
2023/05/18 08:04:46;;;;;;;7.18;3.38;;;16.20;99.90;;;15.61;83.33;102284.19;4136521;28;20030;-73
2023/05/18 08:06:47;;;;;;;7.80;3.85;;;16.20;99.90;;;15.75;84.57;102290.78;4121595;28;20062;-73
2023/05/18 08:08:48;;;;;;;6.95;3.72;;;16.20;99.90;;;15.81;82.66;102282.19;4120528;28;20027;-73
2023/05/18 08:10:51;;;;;;;4.32;2.97;;;16.30;99.90;;;15.92;81.23;102281.94;4136276;28;20038;-73
2023/05/18 08:12:52;;;;;;;6.05;3.20;;;16.40;99.90;;;15.85;80.42;102278.25;4136527;28;20026;-73
2023/05/18 08:14:53;;;;;;;11.77;3.58;;;16.50;99.90;;;16.13;79.51;102277.13;4121595;28;20085;-73
2023/05/18 08:16:53;;;;;;;7.82;3.17;;;16.60;99.90;;;16.40;78.21;102273.50;4121640;28;20041;-73
2023/05/18 08:18:54;;;;;;;7.40;3.55;;;16.80;99.90;;;16.49;77.20;102278.72;4121559;28;20109;-72
2023/05/18 08:20:55;;;;;;;5.78;3.72;;;17.00;99.90;;;16.38;74.40;102257.69;4136374;28;20029;-73
2023/05/18 08:22:56;;;;;;;4.88;3.13;;;17.00;99.90;;;16.29;74.70;102271.09;4121295;28;20082;-73
2023/05/18 08:24:59;;;;;;;7.35;3.42;;;17.00;99.90;;;16.48;74.35;102260.25;4136145;28;20027;-73
2023/05/18 08:27:02;;;;;;;4.93;2.50;;;17.10;99.90;;;16.74;74.77;102266.41;4120314;28;20065;-73
2023/05/18 08:29:09;;;;;;;6.32;3.20;;;17.30;99.90;;;16.99;73.26;102265.50;4121371;28;20058;-73